Portada
METAR-TAF:

METAR-TAF

Aeropuertos :

Aeropuerto Internacional General José Antonio Anzoátegui

Barcelona, Venezuela

latitud: 10-07N, longitud: 064-41W, altitud: 7 m

METAR: falta

Hora: 11:44 (15:44 UTC)

Pronóstico

El informe se hizo hace 5 horas y 44 minutos, a las 10:00 UTC
Pronóstico válido del 20 a las 12 UTC al 21 a las 12 UTC
Viento 2 kt del sur
Visibilidad 10 km o más
Nubes dispersas a una altura de 1300 ft
Evolucionando progresivamente
del 20 a las 14 UTC al 20 a las 18 UTC
Viento 1 kt del norte
Cielo nuboso a una altura de 1600 ft

TAF: SVBC 201000Z 2012/2112 18002KT 9999 SCT013 TX35/18Z TN25/09Z BECMG 2014/2018 36001KT BKN016

Observaciones y pronósticos meteorológicos de más de 4000 aeropuertos (mensajes METAR y TAF).

Los puntos amarillos y rojos representan las estaciones disponibles.

Ponga el ratón en el punto deseado para ver el nombre de la estación.

Haga clic para ver las observaciones y los pronósticos meteorológicos.

Para cambiar el mapa : haga clic en los botones verdes con una cruz de color negro para hacer un zoom, en el botón verde con un guión para alejar o en las flechas verdes para mapas adyacentes.


METAR-TAF: